createdAt,value
2023-05-01T00:00:53.200Z,2.90
2023-05-01T00:03:20.173Z,2.75
2023-05-01T00:05:47.599Z,2.65
2023-05-01T00:08:14.653Z,2.72
2023-05-01T00:10:41.485Z,2.30
2023-05-01T00:13:09.678Z,2.72
2023-05-01T00:15:36.612Z,2.90
2023-05-01T00:18:03.696Z,2.58
2023-05-01T00:20:31.089Z,2.40
2023-05-01T00:22:58.058Z,2.63
2023-05-01T00:25:24.910Z,2.38
2023-05-01T00:27:51.808Z,2.50
2023-05-01T00:30:18.634Z,2.58
2023-05-01T00:32:45.419Z,2.33
2023-05-01T00:35:12.219Z,2.40
2023-05-01T00:37:39.341Z,2.75
2023-05-01T00:40:07.269Z,2.55
2023-05-01T00:42:39.356Z,2.50
2023-05-01T00:45:07.397Z,2.20
2023-05-01T00:47:36.544Z,2.55
2023-05-01T00:50:04.150Z,2.47
2023-05-01T00:52:30.959Z,2.50
2023-05-01T00:54:58.989Z,2.40
2023-05-01T00:57:25.904Z,2.20
2023-05-01T00:59:52.819Z,3.13
2023-05-01T01:02:19.604Z,2.50
2023-05-01T01:04:48.096Z,2.40
2023-05-01T01:07:47.226Z,2.55
2023-05-01T01:10:29.653Z,2.60
2023-05-01T01:13:22.962Z,2.40
2023-05-01T01:16:04.037Z,2.40
2023-05-01T01:18:40.265Z,2.78
2023-05-01T01:21:41.404Z,2.53
2023-05-01T01:24:30.054Z,2.70
2023-05-01T01:27:30.720Z,2.60
2023-05-01T01:30:09.336Z,2.90
2023-05-01T01:33:13.710Z,2.67
2023-05-01T01:35:46.639Z,2.50
2023-05-01T01:38:24.931Z,2.55
2023-05-01T01:41:00.606Z,3.10
2023-05-01T01:43:33.274Z,2.70
2023-05-01T01:46:03.825Z,3.00
2023-05-01T01:48:34.725Z,2.70
2023-05-01T01:51:08.636Z,3.00
2023-05-01T01:53:37.708Z,2.78
2023-05-01T01:56:06.311Z,2.80
2023-05-01T01:58:36.642Z,2.80
2023-05-01T02:01:05.295Z,3.38
2023-05-01T02:03:34.053Z,3.05
2023-05-01T02:06:01.686Z,2.65
2023-05-01T02:08:30.924Z,2.85
2023-05-01T02:11:01.864Z,3.05
2023-05-01T02:13:31.226Z,3.10
2023-05-01T02:16:04.088Z,3.60
2023-05-01T02:18:31.731Z,2.78
2023-05-01T02:20:59.424Z,2.83
2023-05-01T02:23:28.490Z,3.13
2023-05-01T02:25:57.833Z,3.22
2023-05-01T02:28:25.988Z,3.13
2023-05-01T02:30:53.085Z,3.65
2023-05-01T02:33:19.864Z,3.17
2023-05-01T02:35:49.881Z,3.40
2023-05-01T02:38:17.227Z,2.78
2023-05-01T02:40:56.764Z,3.65
2023-05-01T02:43:25.102Z,3.23
2023-05-01T02:45:53.759Z,3.58
2023-05-01T02:48:24.785Z,3.10
2023-05-01T02:50:53.897Z,3.30
2023-05-01T02:53:21.604Z,2.97
2023-05-01T02:55:49.914Z,3.00
2023-05-01T02:58:20.279Z,2.95
2023-05-01T03:03:17.067Z,3.33
2023-05-01T03:05:43.952Z,3.60
2023-05-01T03:08:11.544Z,3.30
2023-05-01T03:10:42.662Z,3.60
2023-05-01T03:13:10.908Z,3.47
2023-05-01T03:15:38.650Z,4.07
2023-05-01T03:18:05.818Z,3.33
2023-05-01T03:20:32.658Z,3.40
2023-05-01T03:22:59.485Z,3.78
2023-05-01T03:25:26.528Z,3.50
2023-05-01T03:27:55.095Z,3.45
2023-05-01T03:30:22.208Z,3.60
2023-05-01T03:32:49.101Z,3.85
2023-05-01T03:35:16.244Z,3.50
2023-05-01T03:37:43.073Z,3.78
2023-05-01T03:40:10.391Z,3.47
2023-05-01T03:42:37.207Z,3.70
2023-05-01T03:45:04.314Z,3.40
2023-05-01T03:47:31.278Z,3.90
2023-05-01T03:49:58.366Z,3.55
2023-05-01T03:52:25.350Z,3.53
2023-05-01T03:54:52.271Z,4.05
2023-05-01T03:57:20.844Z,3.75
2023-05-01T03:59:48.000Z,3.95
2023-05-01T04:02:15.018Z,3.70
2023-05-01T04:04:42.010Z,3.45
2023-05-01T04:07:09.363Z,3.50
2023-05-01T04:09:36.303Z,3.70
2023-05-01T04:12:03.112Z,3.78
2023-05-01T04:14:30.034Z,3.88
2023-05-01T04:16:58.056Z,3.55
2023-05-01T04:19:24.824Z,3.92
2023-05-01T04:21:51.605Z,3.78
2023-05-01T04:24:18.448Z,3.60
2023-05-01T04:26:45.472Z,3.90
2023-05-01T04:29:12.244Z,3.75
2023-05-01T04:31:39.169Z,3.90
2023-05-01T04:34:06.788Z,3.53
2023-05-01T04:36:33.584Z,3.60
2023-05-01T04:39:00.371Z,3.65
2023-05-01T04:41:27.241Z,4.47
2023-05-01T04:43:54.062Z,4.40
2023-05-01T04:46:21.105Z,4.32
2023-05-01T04:48:47.885Z,3.80
2023-05-01T04:51:14.728Z,3.92
2023-05-01T04:53:41.593Z,3.90
2023-05-01T04:56:08.480Z,3.30
2023-05-01T04:58:35.294Z,3.42
2023-05-01T05:01:02.337Z,4.07
2023-05-01T05:03:29.227Z,3.75
2023-05-01T05:05:56.266Z,3.67
2023-05-01T05:08:23.215Z,3.78
2023-05-01T05:10:50.147Z,3.88
2023-05-01T05:13:17.027Z,3.78
2023-05-01T05:15:43.832Z,3.83
2023-05-01T05:18:10.992Z,4.35
2023-05-01T05:20:40.627Z,3.72
2023-05-01T05:23:08.604Z,3.70
2023-05-01T05:25:35.564Z,3.90
2023-05-01T05:28:02.423Z,3.90
2023-05-01T05:30:29.280Z,4.32
2023-05-01T05:32:56.214Z,4.82
2023-05-01T05:35:23.038Z,4.30
2023-05-01T05:37:50.464Z,3.72
2023-05-01T05:40:17.495Z,3.80
2023-05-01T05:42:44.343Z,3.90
2023-05-01T05:45:11.884Z,4.22
2023-05-01T05:47:38.779Z,4.45
2023-05-01T05:50:07.472Z,4.25
2023-05-01T05:52:34.577Z,3.88
2023-05-01T05:55:01.504Z,3.83
2023-05-01T05:57:28.245Z,4.10
2023-05-01T05:59:55.424Z,4.45
2023-05-01T06:02:22.696Z,4.53
2023-05-01T06:04:49.710Z,4.35
2023-05-01T06:07:17.488Z,4.43
2023-05-01T06:09:44.277Z,4.38
2023-05-01T06:12:11.116Z,4.20
2023-05-01T06:14:37.868Z,3.97
2023-05-01T06:17:05.520Z,4.20
2023-05-01T06:19:32.337Z,3.78
2023-05-01T06:21:59.187Z,4.45
2023-05-01T06:24:25.866Z,4.22
2023-05-01T06:26:52.696Z,4.50
2023-05-01T06:29:19.591Z,4.22
2023-05-01T06:31:46.630Z,4.20
2023-05-01T06:34:13.462Z,5.72
2023-05-01T06:36:40.270Z,4.15
2023-05-01T06:39:07.056Z,4.30
2023-05-01T06:41:34.518Z,4.30
2023-05-01T06:44:01.365Z,4.40
2023-05-01T06:46:28.159Z,4.70
2023-05-01T06:48:55.057Z,3.95
2023-05-01T06:51:22.117Z,4.25
2023-05-01T06:53:48.970Z,4.20
2023-05-01T06:56:15.749Z,5.00
2023-05-01T06:58:42.648Z,4.07
2023-05-01T07:01:09.752Z,4.38
2023-05-01T07:03:36.632Z,4.10
2023-05-01T07:06:03.654Z,4.32
2023-05-01T07:08:30.787Z,4.32
2023-05-01T07:10:57.644Z,4.60
2023-05-01T07:13:24.798Z,4.05
2023-05-01T07:15:53.821Z,4.65
2023-05-01T07:18:21.340Z,5.07
2023-05-01T07:20:50.065Z,4.72
2023-05-01T07:23:17.196Z,4.32
2023-05-01T07:25:45.605Z,4.50
2023-05-01T07:28:12.540Z,4.47
2023-05-01T07:30:39.677Z,4.43
2023-05-01T07:33:06.453Z,4.72
2023-05-01T07:35:33.323Z,4.63
2023-05-01T07:38:00.077Z,4.65
2023-05-01T07:40:26.985Z,4.60
2023-05-01T07:42:54.689Z,4.43
2023-05-01T07:45:21.784Z,4.88
2023-05-01T07:47:49.633Z,5.05
2023-05-01T07:50:17.186Z,5.20
2023-05-01T07:52:44.591Z,4.53
2023-05-01T07:55:11.560Z,4.90
2023-05-01T07:57:38.811Z,4.70
2023-05-01T08:00:06.413Z,4.72
2023-05-01T08:02:33.327Z,4.70
2023-05-01T08:05:00.961Z,4.90
2023-05-01T08:07:27.981Z,4.80
2023-05-01T08:09:56.428Z,5.22
2023-05-01T08:12:24.528Z,5.05
2023-05-01T08:14:51.444Z,5.32
2023-05-01T08:17:18.527Z,4.97
2023-05-01T08:19:45.521Z,5.32
2023-05-01T08:22:12.385Z,5.35
2023-05-01T08:24:39.288Z,4.78
2023-05-01T08:27:06.124Z,4.50
2023-05-01T08:29:32.900Z,4.88
2023-05-01T08:31:59.736Z,4.80
2023-05-01T08:34:26.864Z,5.25
2023-05-01T08:36:53.761Z,5.00
2023-05-01T08:39:20.634Z,4.72
2023-05-01T08:41:48.774Z,5.25
2023-05-01T08:44:18.454Z,5.25
2023-05-01T08:46:48.390Z,4.70
2023-05-01T08:49:19.564Z,4.93
2023-05-01T08:51:48.234Z,4.85
2023-05-01T08:54:15.754Z,4.70
2023-05-01T08:56:44.655Z,5.22
2023-05-01T08:59:13.012Z,5.68
2023-05-01T09:01:41.032Z,4.80
2023-05-01T09:04:11.998Z,4.90
2023-05-01T09:06:39.069Z,4.72
2023-05-01T09:09:06.468Z,4.22
2023-05-01T09:11:33.509Z,4.40
2023-05-01T09:14:05.508Z,4.18
2023-05-01T09:16:32.738Z,3.95
2023-05-01T09:18:59.780Z,4.10
2023-05-01T09:21:28.520Z,4.55
2023-05-01T09:23:55.473Z,4.53
2023-05-01T09:26:22.686Z,4.60
2023-05-01T09:28:51.762Z,4.22
2023-05-01T09:31:29.366Z,3.92
2023-05-01T09:34:01.475Z,3.95
2023-05-01T09:36:33.712Z,4.10
2023-05-01T09:39:02.214Z,3.70
2023-05-01T09:41:29.607Z,4.10
2023-05-01T09:43:58.357Z,4.18
2023-05-01T09:46:26.695Z,4.18
2023-05-01T09:49:01.749Z,3.90
2023-05-01T09:51:33.122Z,3.78
2023-05-01T09:54:02.562Z,3.60
2023-05-01T09:56:31.939Z,3.20
2023-05-01T09:59:14.839Z,3.20
2023-05-01T10:01:46.544Z,3.35
2023-05-01T10:04:14.210Z,3.22
2023-05-01T10:06:41.438Z,2.97
2023-05-01T10:09:16.583Z,3.20
2023-05-01T10:11:52.408Z,3.47
2023-05-01T10:14:20.394Z,2.95
2023-05-01T10:16:47.377Z,3.20
2023-05-01T10:19:17.300Z,2.90
2023-05-01T10:21:44.211Z,2.92
2023-05-01T10:24:11.205Z,3.20
2023-05-01T10:26:38.122Z,3.25
2023-05-01T10:29:04.970Z,3.03
2023-05-01T10:31:33.192Z,2.70
2023-05-01T10:34:02.013Z,3.25
2023-05-01T10:36:39.541Z,2.67
2023-05-01T10:39:07.154Z,2.80
2023-05-01T10:41:58.836Z,3.00
2023-05-01T10:44:27.052Z,2.88
2023-05-01T10:46:55.221Z,2.80
2023-05-01T10:49:22.517Z,2.95
2023-05-01T10:51:58.562Z,4.18
2023-05-01T10:54:30.024Z,3.90
2023-05-01T10:57:01.778Z,3.70
2023-05-01T10:59:59.793Z,3.83
2023-05-01T11:02:27.937Z,3.83
2023-05-01T11:04:56.177Z,4.20
2023-05-01T11:07:24.589Z,3.95
2023-05-01T11:09:57.451Z,4.40
2023-05-01T11:12:53.605Z,4.40
2023-05-01T11:15:28.339Z,4.40
2023-05-01T11:17:56.055Z,4.25
2023-05-01T11:20:25.950Z,4.63
2023-05-01T11:22:54.075Z,4.18
2023-05-01T11:25:23.361Z,4.20
2023-05-01T11:27:52.309Z,4.28
2023-05-01T11:30:19.927Z,4.30
2023-05-01T11:32:48.979Z,4.03
2023-05-01T11:35:24.134Z,4.00
2023-05-01T11:37:51.504Z,4.15
2023-05-01T11:40:32.135Z,3.88
2023-05-01T11:43:07.471Z,3.80
2023-05-01T11:45:36.601Z,3.80
2023-05-01T11:48:05.091Z,4.30
2023-05-01T11:50:36.403Z,4.63
2023-05-01T11:53:04.262Z,4.72
2023-05-01T11:55:32.705Z,4.13
2023-05-01T11:57:59.687Z,4.90
2023-05-01T12:00:38.101Z,5.20
2023-05-01T12:03:10.797Z,4.70
2023-05-01T12:05:42.834Z,5.78
2023-05-01T12:08:12.713Z,5.57
2023-05-01T12:10:43.100Z,5.53
2023-05-01T12:13:12.090Z,5.60
2023-05-01T12:15:47.329Z,5.75
2023-05-01T12:18:16.092Z,5.15
2023-05-01T12:20:52.139Z,5.45
2023-05-01T12:23:29.688Z,5.88
2023-05-01T12:25:56.861Z,5.57
2023-05-01T12:28:23.861Z,5.72
2023-05-01T12:30:50.674Z,5.90
2023-05-01T12:33:19.511Z,5.80
2023-05-01T12:35:48.113Z,5.53
2023-05-01T12:38:16.046Z,5.57
2023-05-01T12:40:52.883Z,6.00
2023-05-01T12:43:38.217Z,5.65
2023-05-01T12:46:06.740Z,5.00
2023-05-01T12:48:39.052Z,5.35
2023-05-01T12:51:06.244Z,5.80
2023-05-01T12:53:33.653Z,6.13
2023-05-01T12:56:01.292Z,5.55
2023-05-01T12:58:37.790Z,6.05
2023-05-01T13:01:05.222Z,6.72
2023-05-01T13:03:33.738Z,5.85
2023-05-01T13:06:05.930Z,6.28
2023-05-01T13:08:40.208Z,6.20
2023-05-01T13:11:13.238Z,5.75
2023-05-01T13:13:40.889Z,6.25
2023-05-01T13:16:13.049Z,6.63
2023-05-01T13:18:51.373Z,5.60
2023-05-01T13:21:21.508Z,5.95
2023-05-01T13:24:00.344Z,5.53
2023-05-01T13:26:32.974Z,5.82
2023-05-01T13:29:01.801Z,5.43
2023-05-01T13:31:29.131Z,6.05
2023-05-01T13:33:59.129Z,6.05
2023-05-01T13:36:29.067Z,6.30
2023-05-01T13:38:57.256Z,5.50
2023-05-01T13:41:26.398Z,5.88
2023-05-01T13:43:54.729Z,6.43
2023-05-01T13:46:23.441Z,5.18
2023-05-01T13:48:50.524Z,5.25
2023-05-01T13:51:22.663Z,5.50
2023-05-01T13:53:50.320Z,5.85
2023-05-01T13:56:17.213Z,5.68
2023-05-01T13:58:44.186Z,5.40
2023-05-01T14:01:22.580Z,5.60
2023-05-01T14:03:50.454Z,5.50
2023-05-01T14:06:21.840Z,5.30
2023-05-01T14:08:50.953Z,5.35
2023-05-01T14:11:18.322Z,6.15
2023-05-01T14:13:46.936Z,5.35
2023-05-01T14:16:25.879Z,5.43
2023-05-01T14:18:57.298Z,4.68
2023-05-01T14:21:27.926Z,4.90
2023-05-01T14:23:56.736Z,4.63
2023-05-01T14:26:24.698Z,4.93
2023-05-01T14:28:51.572Z,4.70
2023-05-01T14:31:29.482Z,4.18
2023-05-01T14:33:58.788Z,4.57
2023-05-01T14:36:26.752Z,4.60
2023-05-01T14:38:56.834Z,4.18
2023-05-01T14:41:23.892Z,15.73
2023-05-01T14:43:53.188Z,3.97
2023-05-01T14:46:34.145Z,3.60
2023-05-01T14:49:01.683Z,5.35
2023-05-01T14:51:32.121Z,4.97
2023-05-01T14:53:59.610Z,5.07
2023-05-01T14:56:26.445Z,4.70
2023-05-01T14:58:53.240Z,5.10
2023-05-01T15:01:20.275Z,4.60
2023-05-01T15:03:47.411Z,4.88
2023-05-01T15:06:14.500Z,4.93
2023-05-01T15:08:41.752Z,5.20
2023-05-01T15:11:08.888Z,4.63
2023-05-01T15:13:36.367Z,4.50
2023-05-01T15:16:03.347Z,4.72
2023-05-01T15:18:30.121Z,4.85
2023-05-01T15:20:56.944Z,4.75
2023-05-01T15:23:25.120Z,5.05
2023-05-01T15:25:51.901Z,5.47
2023-05-01T15:28:18.691Z,4.50
2023-05-01T15:30:48.402Z,5.45
2023-05-01T15:33:18.041Z,4.88
2023-05-01T15:35:46.802Z,4.78
2023-05-01T15:38:13.614Z,4.93
2023-05-01T15:40:43.374Z,4.60
2023-05-01T15:43:10.107Z,4.60
2023-05-01T15:45:42.537Z,5.10
2023-05-01T15:48:09.963Z,5.43
2023-05-01T15:50:36.852Z,4.78
2023-05-01T15:53:03.661Z,4.70
2023-05-01T15:55:30.723Z,4.97
2023-05-01T15:57:57.465Z,4.80
2023-05-01T16:00:25.382Z,5.13
2023-05-01T16:02:52.393Z,4.95
2023-05-01T16:05:24.663Z,6.10
2023-05-01T16:07:55.309Z,5.20
2023-05-01T16:10:22.810Z,5.93
2023-05-01T16:12:52.571Z,5.70
2023-05-01T16:15:19.400Z,5.60
2023-05-01T16:17:46.649Z,5.15
2023-05-01T16:20:14.776Z,5.20
2023-05-01T16:22:42.983Z,5.97
2023-05-01T16:25:10.733Z,5.68
2023-05-01T16:27:47.561Z,5.82
2023-05-01T16:30:14.924Z,5.75
2023-05-01T16:32:42.359Z,5.63
2023-05-01T16:35:22.647Z,5.65
2023-05-01T16:40:17.629Z,6.00
2023-05-01T16:42:54.158Z,5.90
2023-05-01T16:45:21.377Z,7.03
2023-05-01T16:47:48.194Z,7.40
2023-05-01T16:50:16.425Z,7.07
2023-05-01T16:52:43.281Z,6.70
2023-05-01T16:55:10.472Z,6.38
2023-05-01T16:57:37.307Z,6.95
2023-05-01T17:00:05.362Z,6.82
2023-05-01T17:02:33.364Z,7.57
2023-05-01T17:05:00.448Z,6.72
2023-05-01T17:07:27.319Z,6.57
2023-05-01T17:09:54.487Z,7.28
2023-05-01T17:12:21.386Z,7.90
2023-05-01T17:14:48.176Z,7.13
2023-05-01T17:17:15.452Z,7.38
2023-05-01T17:19:42.232Z,7.32
2023-05-01T17:22:09.089Z,7.15
2023-05-01T17:24:36.615Z,7.47
2023-05-01T17:27:03.623Z,8.20
2023-05-01T17:29:30.674Z,7.43
2023-05-01T17:31:57.511Z,7.47
2023-05-01T17:34:24.289Z,7.35
2023-05-01T17:36:51.094Z,7.18
2023-05-01T17:39:21.678Z,6.88
2023-05-01T17:41:51.481Z,7.55
2023-05-01T17:44:18.229Z,8.55
2023-05-01T17:46:44.936Z,7.80
2023-05-01T17:49:11.715Z,8.57
2023-05-01T17:51:38.511Z,8.10
2023-05-01T17:54:05.801Z,8.40
2023-05-01T17:56:32.691Z,8.52
2023-05-01T17:58:59.617Z,9.40
2023-05-01T18:01:26.417Z,9.52
2023-05-01T18:07:34.269Z,9.88
2023-05-01T18:10:01.283Z,9.88
2023-05-01T18:12:29.374Z,9.73
2023-05-01T18:14:56.181Z,10.63
2023-05-01T18:17:23.269Z,9.77
2023-05-01T18:19:50.763Z,10.02
2023-05-01T18:22:17.563Z,10.30
2023-05-01T18:24:44.578Z,10.13
2023-05-01T18:27:12.429Z,11.25
2023-05-01T18:29:39.130Z,11.48
2023-05-01T18:32:06.897Z,12.00
2023-05-01T18:34:33.852Z,11.68
2023-05-01T18:37:00.647Z,11.48
2023-05-01T18:39:27.349Z,12.60
2023-05-01T18:41:54.921Z,13.25
2023-05-01T18:44:21.807Z,13.57
2023-05-01T18:46:48.582Z,12.98
2023-05-01T18:49:15.453Z,13.50
2023-05-01T18:51:42.312Z,13.32
2023-05-01T18:54:10.064Z,13.45
2023-05-01T18:56:37.189Z,13.45
2023-05-01T18:59:04.194Z,14.48
2023-05-01T19:01:31.362Z,13.85
2023-05-01T19:03:59.923Z,15.10
2023-05-01T19:06:26.998Z,15.70
2023-05-01T19:08:54.025Z,15.80
2023-05-01T19:11:21.670Z,14.98
2023-05-01T19:13:48.881Z,15.20
2023-05-01T19:16:15.761Z,15.77
2023-05-01T19:18:42.577Z,14.80
2023-05-01T19:21:11.038Z,15.88
2023-05-01T19:23:39.724Z,15.43
2023-05-01T19:26:07.999Z,16.42
2023-05-01T19:28:36.679Z,16.58
2023-05-01T19:31:04.424Z,17.80
2023-05-01T19:33:31.149Z,17.35
2023-05-01T19:35:57.955Z,18.98
2023-05-01T19:38:24.916Z,18.02
2023-05-01T19:40:51.715Z,18.35
2023-05-01T19:43:18.521Z,19.05
2023-05-01T19:45:45.525Z,18.05
2023-05-01T19:48:12.447Z,18.77
2023-05-01T19:50:39.277Z,19.35
2023-05-01T19:53:06.211Z,20.60
2023-05-01T19:55:33.519Z,20.33
2023-05-01T19:58:00.406Z,19.77
2023-05-01T20:00:27.983Z,21.60
2023-05-01T20:02:54.912Z,21.08
2023-05-01T20:05:27.901Z,21.00
2023-05-01T20:07:55.740Z,21.23
2023-05-01T20:10:22.589Z,21.45
2023-05-01T20:12:49.447Z,21.45
2023-05-01T20:15:16.443Z,20.58
2023-05-01T20:17:43.552Z,20.55
2023-05-01T20:20:10.761Z,20.65
2023-05-01T20:22:37.637Z,18.98
2023-05-01T20:25:05.574Z,18.95
2023-05-01T20:27:33.700Z,18.55
2023-05-01T20:30:01.296Z,19.48
2023-05-01T20:32:28.439Z,17.75
2023-05-01T20:34:55.498Z,18.95
2023-05-01T20:37:22.211Z,19.00
2023-05-01T20:39:48.910Z,17.80
2023-05-01T20:42:15.887Z,18.02
2023-05-01T20:44:43.148Z,16.85
2023-05-01T20:47:09.968Z,16.42
2023-05-01T20:49:36.680Z,18.25
2023-05-01T20:52:03.363Z,17.63
2023-05-01T20:54:32.446Z,18.38
2023-05-01T20:57:00.004Z,17.27
2023-05-01T20:59:26.728Z,18.55
2023-05-01T21:01:53.587Z,16.30
2023-05-01T21:04:20.432Z,17.23
2023-05-01T21:06:47.303Z,17.08
2023-05-01T21:09:15.029Z,16.98
2023-05-01T21:11:41.911Z,17.65
2023-05-01T21:14:09.014Z,17.42
2023-05-01T21:16:36.472Z,16.38
2023-05-01T21:19:03.761Z,17.20
2023-05-01T21:21:30.927Z,17.13
2023-05-01T21:23:57.659Z,17.63
2023-05-01T21:26:24.546Z,16.52
2023-05-01T21:28:51.418Z,17.08
2023-05-01T21:31:18.245Z,17.27
2023-05-01T21:33:48.162Z,17.45
2023-05-01T21:36:17.395Z,18.00
2023-05-01T21:38:45.895Z,17.15
2023-05-01T21:41:15.261Z,17.83
2023-05-01T21:43:42.147Z,17.37
2023-05-01T21:46:15.255Z,18.90
2023-05-01T21:48:42.498Z,18.33
2023-05-01T21:51:09.658Z,18.05
2023-05-01T21:53:40.305Z,17.98
2023-05-01T21:56:07.332Z,18.20
2023-05-01T21:58:34.212Z,18.65
2023-05-01T22:01:01.417Z,18.52
2023-05-01T22:03:28.366Z,18.17
2023-05-01T22:05:55.163Z,18.42
2023-05-01T22:08:22.823Z,19.60
2023-05-01T22:10:49.596Z,19.80
2023-05-01T22:13:16.395Z,18.95
2023-05-01T22:15:43.278Z,20.50
2023-05-01T22:18:10.266Z,20.17
2023-05-01T22:20:37.030Z,18.20
2023-05-01T22:23:03.762Z,19.60
2023-05-01T22:25:30.485Z,18.90
2023-05-01T22:27:57.841Z,19.35
2023-05-01T22:30:24.595Z,18.52
2023-05-01T22:32:51.386Z,18.77
2023-05-01T22:35:18.221Z,19.08
2023-05-01T22:37:45.023Z,18.35
2023-05-01T22:40:12.086Z,17.73
2023-05-01T22:42:38.766Z,17.70
2023-05-01T22:45:07.079Z,17.88
2023-05-01T22:47:34.188Z,16.27
2023-05-01T22:50:01.660Z,17.50
2023-05-01T22:52:28.637Z,16.38
2023-05-01T22:54:56.143Z,16.20
2023-05-01T22:57:22.858Z,15.07
2023-05-01T22:59:49.654Z,14.65
2023-05-01T23:02:17.605Z,14.38
2023-05-01T23:04:45.621Z,15.35
2023-05-01T23:07:15.636Z,16.10
2023-05-01T23:09:42.431Z,14.98
2023-05-01T23:12:18.600Z,15.43
2023-05-01T23:14:46.592Z,14.35
2023-05-01T23:17:14.714Z,14.50
2023-05-01T23:19:45.351Z,16.17
2023-05-01T23:22:14.940Z,16.63
2023-05-01T23:24:44.695Z,16.95
2023-05-01T23:27:13.534Z,17.73
2023-05-01T23:29:41.243Z,16.48
2023-05-01T23:32:22.002Z,17.20
2023-05-01T23:34:48.940Z,17.05
2023-05-01T23:37:15.856Z,16.50
2023-05-01T23:39:42.678Z,18.05
2023-05-01T23:42:09.562Z,16.25
2023-05-01T23:44:36.296Z,16.27
2023-05-01T23:47:03.218Z,16.50
2023-05-01T23:49:30.274Z,16.63
2023-05-01T23:51:57.159Z,16.67
2023-05-01T23:54:23.828Z,15.80
2023-05-01T23:56:50.593Z,15.40
2023-05-01T23:59:17.381Z,15.85
